Time;durP1;ratioP1;P1;durP2;ratioP2;P2;SDS_P1;SDS_P2;PMS_P1;PMS_P2;Temp;Humidity;BMP_temperature;BMP_pressure;BME280_temperature;BME280_humidity;BME280_pressure;Samples;Min_cycle;Max_cycle;Signal;HPM_P1;HPM_P2
2020/12/19 22:04:49;;;;;;;4.97;1.40;;;25.60;45.80;;;;;;5001160;27;20370;-61
2020/12/19 22:07:35;;;;;;;3.47;2.03;;;24.60;48.60;;;;;;5026519;28;20140;-60
2020/12/19 22:10:20;;;;;;;2.55;1.42;;;24.20;49.50;;;;;;5034784;28;20038;-62
2020/12/19 22:12:47;;;;;;;6.20;1.80;;;24.20;50.20;;;;;;5045284;28;20044;-63
2020/12/19 22:15:33;;;;;;;2.72;1.08;;;23.90;49.60;;;;;;5058335;28;20074;-65
2020/12/19 22:18:18;;;;;;;;;;;23.70;51.70;;;;;;5029430;28;20052;-54
2020/12/19 22:20:44;;;;;;;2.83;1.30;;;23.70;50.10;;;;;;5043991;28;19917;-54
2020/12/19 22:23:09;;;;;;;3.38;1.48;;;23.50;51.20;;;;;;5047376;28;20045;-53
2020/12/19 22:25:35;;;;;;;5.22;1.63;;;23.30;50.80;;;;;;5047141;28;20505;-54
2020/12/19 22:28:01;;;;;;;2.67;1.35;;;23.10;50.90;;;;;;5045749;28;20506;-54
2020/12/19 22:31:27;;;;;;;;;;;22.00;42.50;;;;;;5123543;27;20916;-68
2020/12/19 22:33:53;;;;;;;6.30;3.10;;;18.20;47.60;;;;;;5110627;27;19928;-70
2020/12/19 22:36:19;;;;;;;5.35;2.78;;;15.90;54.90;;;;;;5097869;28;20043;-70
2020/12/19 22:38:44;;;;;;;4.72;3.13;;;13.80;62.50;;;;;;5101215;28;20031;-70
2020/12/19 22:41:10;;;;;;;5.85;3.35;;;12.60;67.20;;;;;;5101438;28;20047;-70
2020/12/19 22:43:36;;;;;;;4.75;3.90;;;11.60;71.70;;;;;;5105316;28;20085;-70
2020/12/19 22:46:02;;;;;;;5.05;3.33;;;11.00;73.80;;;;;;5103139;28;20043;-70
2020/12/19 22:48:28;;;;;;;5.68;3.80;;;10.50;77.00;;;;;;5104315;28;20036;-70
2020/12/19 22:51:14;;;;;;;6.82;4.18;;;10.20;77.50;;;;;;5104930;28;20405;-70
2020/12/19 22:53:40;;;;;;;7.60;3.78;;;9.90;80.30;;;;;;5108241;28;20428;-70
2020/12/19 22:56:28;;;;;;;5.70;3.67;;;9.70;80.50;;;;;;5131758;27;20052;-70
2020/12/19 22:58:57;;;;;;;13.60;4.28;;;9.50;82.80;;;;;;5100813;28;20028;-70
2020/12/19 23:01:24;;;;;;;7.50;4.40;;;9.40;82.90;;;;;;5098934;28;20042;-70
2020/12/19 23:03:50;;;;;;;6.20;4.72;;;9.40;82.50;;;;;;5097847;28;20085;-70
2020/12/19 23:06:26;;;;;;;8.05;5.00;;;9.30;83.80;;;;;;5101540;28;20040;-70
2020/12/19 23:08:52;;;;;;;7.65;4.80;;;9.30;85.50;;;;;;5101175;28;20044;-70
2020/12/19 23:11:38;;;;;;;7.82;5.15;;;9.20;85.20;;;;;;5129138;27;20052;-70
2020/12/19 23:14:24;;;;;;;6.18;4.15;;;9.20;85.10;;;;;;5096107;28;20400;-70
2020/12/19 23:16:51;;;;;;;7.45;4.18;;;9.10;85.80;;;;;;5096958;28;20135;-70
2020/12/19 23:19:16;;;;;;;8.38;4.22;;;9.00;85.20;;;;;;5095170;28;20096;-70
2020/12/19 23:21:42;;;;;;;8.63;5.03;;;9.10;86.40;;;;;;5099929;28;20443;-70
2020/12/19 23:24:28;;;;;;;6.38;3.90;;;9.00;85.10;;;;;;5098902;28;20048;-70
2020/12/19 23:26:59;;;;;;;7.65;4.47;;;9.00;86.30;;;;;;5100285;28;20042;-70
2020/12/19 23:29:44;;;;;;;8.25;4.55;;;9.00;87.30;;;;;;5097483;28;20070;-70
2020/12/19 23:32:10;;;;;;;10.98;6.35;;;8.90;86.70;;;;;;5095676;28;20036;-70
2020/12/19 23:34:36;;;;;;;8.07;5.13;;;8.90;87.40;;;;;;5099780;28;20451;-70
2020/12/19 23:37:02;;;;;;;8.48;4.45;;;8.90;87.30;;;;;;5096800;28;20032;-70
2020/12/19 23:39:28;;;;;;;7.43;4.35;;;8.90;87.00;;;;;;5101370;28;20039;-70
2020/12/19 23:41:54;;;;;;;8.73;5.03;;;8.90;87.30;;;;;;5092987;28;20029;-70
2020/12/19 23:44:20;;;;;;;10.45;4.60;;;8.90;86.90;;;;;;5094686;28;20036;-70
2020/12/19 23:47:06;;;;;;;8.52;4.53;;;8.80;87.70;;;;;;5089915;28;20497;-70
2020/12/19 23:49:51;;;;;;;6.50;4.37;;;8.80;86.80;;;;;;5090693;28;20040;-70
2020/12/19 23:52:17;;;;;;;10.45;4.80;;;8.80;87.50;;;;;;5090905;28;20297;-70
2020/12/19 23:55:03;;;;;;;10.13;4.60;;;8.80;87.00;;;;;;5091646;28;20548;-70
2020/12/19 23:57:29;;;;;;;9.63;4.53;;;8.80;88.00;;;;;;5091963;28;20032;-70
2020/12/19 23:59:54;;;;;;;13.05;4.80;;;8.80;87.00;;;;;;5093084;28;20494;-70
